sensor_id;sensor_type;location;lat;lon;timestamp;P1;durP1;ratioP1;P2;durP2;ratioP2
58260;SDS011;44058;52.898;6.502;2024-02-04T00:01:35;9.02;;;2.20;;
58260;SDS011;44058;52.898;6.502;2024-02-04T00:04:02;6.80;;;2.17;;
58260;SDS011;44058;52.898;6.502;2024-02-04T00:06:29;9.07;;;2.30;;
58260;SDS011;44058;52.898;6.502;2024-02-04T00:08:55;7.95;;;2.20;;
58260;SDS011;44058;52.898;6.502;2024-02-04T00:11:23;10.55;;;1.90;;
58260;SDS011;44058;52.898;6.502;2024-02-04T00:13:50;9.23;;;1.88;;
58260;SDS011;44058;52.898;6.502;2024-02-04T00:16:17;5.93;;;1.75;;
58260;SDS011;44058;52.898;6.502;2024-02-04T00:18:44;4.90;;;1.73;;
58260;SDS011;44058;52.898;6.502;2024-02-04T00:21:11;6.25;;;1.80;;
58260;SDS011;44058;52.898;6.502;2024-02-04T00:23:38;5.63;;;1.95;;
58260;SDS011;44058;52.898;6.502;2024-02-04T00:26:05;9.15;;;2.00;;
58260;SDS011;44058;52.898;6.502;2024-02-04T00:28:32;9.07;;;1.92;;
58260;SDS011;44058;52.898;6.502;2024-02-04T00:30:58;5.97;;;1.73;;
58260;SDS011;44058;52.898;6.502;2024-02-04T00:33:25;6.38;;;1.88;;
58260;SDS011;44058;52.898;6.502;2024-02-04T00:35:52;9.68;;;2.15;;
58260;SDS011;44058;52.898;6.502;2024-02-04T00:38:19;4.78;;;1.45;;
58260;SDS011;44058;52.898;6.502;2024-02-04T00:40:46;9.02;;;1.95;;
58260;SDS011;44058;52.898;6.502;2024-02-04T00:43:13;6.28;;;1.85;;
58260;SDS011;44058;52.898;6.502;2024-02-04T00:45:40;6.95;;;1.60;;
58260;SDS011;44058;52.898;6.502;2024-02-04T00:48:07;8.98;;;1.60;;
58260;SDS011;44058;52.898;6.502;2024-02-04T00:50:34;5.68;;;1.27;;
58260;SDS011;44058;52.898;6.502;2024-02-04T00:53:01;6.90;;;1.60;;
58260;SDS011;44058;52.898;6.502;2024-02-04T00:55:28;14.73;;;1.83;;
58260;SDS011;44058;52.898;6.502;2024-02-04T00:57:55;9.50;;;1.60;;
58260;SDS011;44058;52.898;6.502;2024-02-04T01:00:24;8.23;;;2.00;;
58260;SDS011;44058;52.898;6.502;2024-02-04T01:02:51;7.30;;;1.67;;
58260;SDS011;44058;52.898;6.502;2024-02-04T01:05:18;7.45;;;1.85;;
58260;SDS011;44058;52.898;6.502;2024-02-04T01:07:45;10.70;;;1.70;;
58260;SDS011;44058;52.898;6.502;2024-02-04T01:10:12;10.48;;;1.85;;
58260;SDS011;44058;52.898;6.502;2024-02-04T01:12:39;7.85;;;1.83;;
58260;SDS011;44058;52.898;6.502;2024-02-04T01:15:06;8.05;;;2.35;;
58260;SDS011;44058;52.898;6.502;2024-02-04T01:17:33;9.23;;;2.08;;
58260;SDS011;44058;52.898;6.502;2024-02-04T01:20:00;9.68;;;1.77;;
58260;SDS011;44058;52.898;6.502;2024-02-04T01:22:27;7.80;;;1.50;;
58260;SDS011;44058;52.898;6.502;2024-02-04T01:24:54;6.10;;;1.52;;
58260;SDS011;44058;52.898;6.502;2024-02-04T01:27:21;7.30;;;1.52;;
58260;SDS011;44058;52.898;6.502;2024-02-04T01:29:48;9.63;;;2.05;;
58260;SDS011;44058;52.898;6.502;2024-02-04T01:32:15;10.25;;;1.90;;
58260;SDS011;44058;52.898;6.502;2024-02-04T01:34:42;8.75;;;2.30;;
58260;SDS011;44058;52.898;6.502;2024-02-04T01:37:09;6.53;;;1.48;;
58260;SDS011;44058;52.898;6.502;2024-02-04T01:39:36;6.88;;;1.73;;
58260;SDS011;44058;52.898;6.502;2024-02-04T01:42:03;8.32;;;1.35;;
58260;SDS011;44058;52.898;6.502;2024-02-04T01:44:31;10.02;;;1.50;;
58260;SDS011;44058;52.898;6.502;2024-02-04T01:46:58;7.05;;;1.42;;
58260;SDS011;44058;52.898;6.502;2024-02-04T01:49:25;9.20;;;1.55;;
58260;SDS011;44058;52.898;6.502;2024-02-04T01:51:52;5.38;;;1.42;;
58260;SDS011;44058;52.898;6.502;2024-02-04T01:54:20;9.90;;;1.90;;
58260;SDS011;44058;52.898;6.502;2024-02-04T01:56:49;7.50;;;1.50;;
58260;SDS011;44058;52.898;6.502;2024-02-04T01:59:16;9.70;;;1.60;;
58260;SDS011;44058;52.898;6.502;2024-02-04T02:01:43;7.30;;;1.73;;
58260;SDS011;44058;52.898;6.502;2024-02-04T02:04:11;7.20;;;1.75;;
58260;SDS011;44058;52.898;6.502;2024-02-04T02:06:38;8.10;;;1.50;;
58260;SDS011;44058;52.898;6.502;2024-02-04T02:09:09;7.65;;;1.33;;
58260;SDS011;44058;52.898;6.502;2024-02-04T02:11:42;9.95;;;1.73;;
58260;SDS011;44058;52.898;6.502;2024-02-04T02:14:15;7.07;;;2.00;;
58260;SDS011;44058;52.898;6.502;2024-02-04T02:16:44;11.43;;;2.08;;
58260;SDS011;44058;52.898;6.502;2024-02-04T02:22:01;6.40;;;1.50;;
58260;SDS011;44058;52.898;6.502;2024-02-04T02:24:41;9.30;;;2.28;;
58260;SDS011;44058;52.898;6.502;2024-02-04T02:27:08;11.55;;;2.13;;
58260;SDS011;44058;52.898;6.502;2024-02-04T02:29:35;8.80;;;2.30;;
58260;SDS011;44058;52.898;6.502;2024-02-04T02:32:02;9.48;;;2.67;;
58260;SDS011;44058;52.898;6.502;2024-02-04T02:34:30;11.00;;;2.30;;
58260;SDS011;44058;52.898;6.502;2024-02-04T02:36:59;10.63;;;2.33;;
58260;SDS011;44058;52.898;6.502;2024-02-04T02:39:31;10.20;;;2.70;;
58260;SDS011;44058;52.898;6.502;2024-02-04T02:41:59;8.18;;;3.67;;
58260;SDS011;44058;52.898;6.502;2024-02-04T02:44:26;6.60;;;2.67;;
58260;SDS011;44058;52.898;6.502;2024-02-04T02:46:54;11.35;;;3.60;;
58260;SDS011;44058;52.898;6.502;2024-02-04T02:49:22;10.70;;;2.67;;
58260;SDS011;44058;52.898;6.502;2024-02-04T02:51:49;10.70;;;3.40;;
58260;SDS011;44058;52.898;6.502;2024-02-04T02:54:16;10.05;;;3.53;;
58260;SDS011;44058;52.898;6.502;2024-02-04T02:56:43;11.57;;;3.40;;
58260;SDS011;44058;52.898;6.502;2024-02-04T02:59:10;9.20;;;3.30;;
58260;SDS011;44058;52.898;6.502;2024-02-04T03:01:40;11.15;;;3.33;;
58260;SDS011;44058;52.898;6.502;2024-02-04T03:04:07;10.70;;;3.40;;
58260;SDS011;44058;52.898;6.502;2024-02-04T03:06:34;12.35;;;3.97;;
58260;SDS011;44058;52.898;6.502;2024-02-04T03:09:01;10.95;;;3.70;;
58260;SDS011;44058;52.898;6.502;2024-02-04T03:11:28;12.02;;;4.30;;
58260;SDS011;44058;52.898;6.502;2024-02-04T03:13:55;11.77;;;3.22;;
58260;SDS011;44058;52.898;6.502;2024-02-04T03:16:22;11.40;;;3.42;;
58260;SDS011;44058;52.898;6.502;2024-02-04T03:18:48;10.38;;;3.38;;
58260;SDS011;44058;52.898;6.502;2024-02-04T03:21:16;10.15;;;2.80;;
58260;SDS011;44058;52.898;6.502;2024-02-04T03:23:43;10.35;;;2.70;;
58260;SDS011;44058;52.898;6.502;2024-02-04T03:26:11;11.40;;;2.95;;
58260;SDS011;44058;52.898;6.502;2024-02-04T03:28:38;10.63;;;2.88;;
58260;SDS011;44058;52.898;6.502;2024-02-04T03:31:05;9.75;;;3.03;;
58260;SDS011;44058;52.898;6.502;2024-02-04T03:33:31;11.60;;;2.55;;
58260;SDS011;44058;52.898;6.502;2024-02-04T03:35:58;11.80;;;2.40;;
58260;SDS011;44058;52.898;6.502;2024-02-04T03:38:25;14.65;;;3.63;;
58260;SDS011;44058;52.898;6.502;2024-02-04T03:40:52;10.15;;;2.33;;
58260;SDS011;44058;52.898;6.502;2024-02-04T03:43:19;8.35;;;2.05;;
58260;SDS011;44058;52.898;6.502;2024-02-04T03:45:46;8.02;;;2.15;;
58260;SDS011;44058;52.898;6.502;2024-02-04T03:48:14;11.45;;;2.22;;
58260;SDS011;44058;52.898;6.502;2024-02-04T03:50:41;10.55;;;2.42;;
58260;SDS011;44058;52.898;6.502;2024-02-04T03:53:08;12.32;;;3.13;;
58260;SDS011;44058;52.898;6.502;2024-02-04T03:55:34;11.05;;;1.98;;
58260;SDS011;44058;52.898;6.502;2024-02-04T03:58:01;7.60;;;1.98;;
58260;SDS011;44058;52.898;6.502;2024-02-04T04:00:28;11.68;;;2.05;;
58260;SDS011;44058;52.898;6.502;2024-02-04T04:02:55;10.43;;;2.15;;
58260;SDS011;44058;52.898;6.502;2024-02-04T04:05:22;9.52;;;1.92;;
58260;SDS011;44058;52.898;6.502;2024-02-04T04:07:49;11.82;;;2.05;;
58260;SDS011;44058;52.898;6.502;2024-02-04T04:10:16;8.23;;;1.67;;
58260;SDS011;44058;52.898;6.502;2024-02-04T04:12:43;10.93;;;1.90;;
58260;SDS011;44058;52.898;6.502;2024-02-04T04:15:10;10.25;;;1.90;;
58260;SDS011;44058;52.898;6.502;2024-02-04T04:17:37;7.57;;;1.70;;
58260;SDS011;44058;52.898;6.502;2024-02-04T04:20:06;10.70;;;1.80;;
58260;SDS011;44058;52.898;6.502;2024-02-04T04:25:00;6.57;;;1.70;;
58260;SDS011;44058;52.898;6.502;2024-02-04T04:27:27;7.68;;;2.25;;
58260;SDS011;44058;52.898;6.502;2024-02-04T04:29:54;6.43;;;1.58;;
58260;SDS011;44058;52.898;6.502;2024-02-04T04:32:21;11.30;;;2.38;;
58260;SDS011;44058;52.898;6.502;2024-02-04T04:34:48;9.82;;;1.88;;
58260;SDS011;44058;52.898;6.502;2024-02-04T04:37:15;13.55;;;1.98;;
58260;SDS011;44058;52.898;6.502;2024-02-04T04:39:42;11.52;;;2.90;;
58260;SDS011;44058;52.898;6.502;2024-02-04T04:42:08;13.70;;;2.28;;
58260;SDS011;44058;52.898;6.502;2024-02-04T04:44:35;15.02;;;2.33;;
58260;SDS011;44058;52.898;6.502;2024-02-04T04:47:02;8.20;;;1.48;;
58260;SDS011;44058;52.898;6.502;2024-02-04T04:49:30;8.10;;;2.15;;
58260;SDS011;44058;52.898;6.502;2024-02-04T04:51:57;6.72;;;1.63;;
58260;SDS011;44058;52.898;6.502;2024-02-04T04:54:24;9.27;;;1.75;;
58260;SDS011;44058;52.898;6.502;2024-02-04T04:56:51;5.43;;;1.50;;
58260;SDS011;44058;52.898;6.502;2024-02-04T04:59:18;10.55;;;1.95;;
58260;SDS011;44058;52.898;6.502;2024-02-04T05:01:48;7.65;;;2.00;;
58260;SDS011;44058;52.898;6.502;2024-02-04T05:04:15;11.35;;;1.80;;
58260;SDS011;44058;52.898;6.502;2024-02-04T05:06:42;10.52;;;1.90;;
58260;SDS011;44058;52.898;6.502;2024-02-04T05:09:09;14.35;;;2.03;;
58260;SDS011;44058;52.898;6.502;2024-02-04T05:11:37;7.25;;;1.65;;
58260;SDS011;44058;52.898;6.502;2024-02-04T05:14:03;8.90;;;2.10;;
58260;SDS011;44058;52.898;6.502;2024-02-04T05:16:30;9.93;;;1.98;;
58260;SDS011;44058;52.898;6.502;2024-02-04T05:18:57;6.53;;;2.08;;
58260;SDS011;44058;52.898;6.502;2024-02-04T05:21:24;8.05;;;1.70;;
58260;SDS011;44058;52.898;6.502;2024-02-04T05:23:51;9.70;;;1.90;;
58260;SDS011;44058;52.898;6.502;2024-02-04T05:26:18;10.02;;;1.92;;
58260;SDS011;44058;52.898;6.502;2024-02-04T05:28:45;6.50;;;1.75;;
58260;SDS011;44058;52.898;6.502;2024-02-04T05:31:12;7.85;;;1.88;;
58260;SDS011;44058;52.898;6.502;2024-02-04T05:33:39;7.25;;;1.40;;
58260;SDS011;44058;52.898;6.502;2024-02-04T05:36:06;9.85;;;2.13;;
58260;SDS011;44058;52.898;6.502;2024-02-04T05:38:33;8.38;;;1.50;;
58260;SDS011;44058;52.898;6.502;2024-02-04T05:41:00;9.60;;;1.95;;
58260;SDS011;44058;52.898;6.502;2024-02-04T05:43:27;8.25;;;1.77;;
58260;SDS011;44058;52.898;6.502;2024-02-04T05:45:54;5.72;;;1.60;;
58260;SDS011;44058;52.898;6.502;2024-02-04T05:48:21;10.50;;;2.10;;
58260;SDS011;44058;52.898;6.502;2024-02-04T05:50:48;8.48;;;2.05;;
58260;SDS011;44058;52.898;6.502;2024-02-04T05:53:15;11.63;;;2.05;;
58260;SDS011;44058;52.898;6.502;2024-02-04T05:55:42;15.85;;;2.28;;
58260;SDS011;44058;52.898;6.502;2024-02-04T05:58:09;8.02;;;1.58;;
58260;SDS011;44058;52.898;6.502;2024-02-04T06:00:36;10.75;;;1.70;;
58260;SDS011;44058;52.898;6.502;2024-02-04T06:03:03;12.57;;;2.30;;
58260;SDS011;44058;52.898;6.502;2024-02-04T06:05:30;9.63;;;1.38;;
58260;SDS011;44058;52.898;6.502;2024-02-04T06:07:57;11.80;;;1.92;;
58260;SDS011;44058;52.898;6.502;2024-02-04T06:10:24;8.40;;;1.85;;
58260;SDS011;44058;52.898;6.502;2024-02-04T06:12:51;7.78;;;1.42;;
58260;SDS011;44058;52.898;6.502;2024-02-04T06:15:18;8.43;;;1.88;;
58260;SDS011;44058;52.898;6.502;2024-02-04T06:17:47;11.40;;;1.77;;
58260;SDS011;44058;52.898;6.502;2024-02-04T06:20:14;8.65;;;1.90;;
58260;SDS011;44058;52.898;6.502;2024-02-04T06:22:41;7.00;;;1.65;;
58260;SDS011;44058;52.898;6.502;2024-02-04T06:25:08;12.88;;;1.98;;
58260;SDS011;44058;52.898;6.502;2024-02-04T06:27:35;10.00;;;1.85;;
58260;SDS011;44058;52.898;6.502;2024-02-04T06:30:02;12.45;;;1.70;;
58260;SDS011;44058;52.898;6.502;2024-02-04T06:32:29;11.50;;;2.55;;
58260;SDS011;44058;52.898;6.502;2024-02-04T06:34:56;8.15;;;1.40;;
58260;SDS011;44058;52.898;6.502;2024-02-04T06:37:24;10.48;;;1.83;;
58260;SDS011;44058;52.898;6.502;2024-02-04T06:39:54;9.43;;;1.50;;
58260;SDS011;44058;52.898;6.502;2024-02-04T06:42:21;7.68;;;1.65;;
58260;SDS011;44058;52.898;6.502;2024-02-04T06:44:48;13.52;;;2.00;;
58260;SDS011;44058;52.898;6.502;2024-02-04T06:47:15;13.20;;;1.92;;
58260;SDS011;44058;52.898;6.502;2024-02-04T06:49:45;8.95;;;1.75;;
58260;SDS011;44058;52.898;6.502;2024-02-04T06:52:12;10.75;;;2.03;;
58260;SDS011;44058;52.898;6.502;2024-02-04T06:54:39;13.35;;;2.28;;
58260;SDS011;44058;52.898;6.502;2024-02-04T06:57:06;10.63;;;1.95;;
58260;SDS011;44058;52.898;6.502;2024-02-04T06:59:33;10.88;;;2.42;;
58260;SDS011;44058;52.898;6.502;2024-02-04T07:02:00;9.98;;;2.20;;
58260;SDS011;44058;52.898;6.502;2024-02-04T07:04:27;13.98;;;2.47;;
58260;SDS011;44058;52.898;6.502;2024-02-04T07:06:54;13.80;;;2.28;;
58260;SDS011;44058;52.898;6.502;2024-02-04T07:09:21;10.05;;;2.13;;
58260;SDS011;44058;52.898;6.502;2024-02-04T07:11:48;10.88;;;1.90;;
58260;SDS011;44058;52.898;6.502;2024-02-04T07:14:15;10.55;;;2.00;;
58260;SDS011;44058;52.898;6.502;2024-02-04T07:16:41;10.20;;;2.28;;
58260;SDS011;44058;52.898;6.502;2024-02-04T07:19:08;9.63;;;2.05;;
58260;SDS011;44058;52.898;6.502;2024-02-04T07:21:35;8.60;;;2.03;;
58260;SDS011;44058;52.898;6.502;2024-02-04T07:24:02;10.85;;;1.90;;
58260;SDS011;44058;52.898;6.502;2024-02-04T07:26:29;10.88;;;1.95;;
58260;SDS011;44058;52.898;6.502;2024-02-04T07:28:56;10.45;;;1.90;;
58260;SDS011;44058;52.898;6.502;2024-02-04T07:31:23;6.38;;;2.00;;
58260;SDS011;44058;52.898;6.502;2024-02-04T07:33:50;10.32;;;1.77;;
58260;SDS011;44058;52.898;6.502;2024-02-04T07:36:17;9.63;;;1.92;;
58260;SDS011;44058;52.898;6.502;2024-02-04T07:38:44;12.48;;;2.08;;
58260;SDS011;44058;52.898;6.502;2024-02-04T07:41:13;10.90;;;1.80;;
58260;SDS011;44058;52.898;6.502;2024-02-04T07:43:40;9.13;;;1.92;;
58260;SDS011;44058;52.898;6.502;2024-02-04T07:46:07;10.93;;;2.05;;
58260;SDS011;44058;52.898;6.502;2024-02-04T07:48:33;7.72;;;1.98;;
58260;SDS011;44058;52.898;6.502;2024-02-04T07:51:00;11.40;;;2.30;;
58260;SDS011;44058;52.898;6.502;2024-02-04T07:53:26;11.30;;;2.17;;
58260;SDS011;44058;52.898;6.502;2024-02-04T07:55:52;11.55;;;2.58;;
58260;SDS011;44058;52.898;6.502;2024-02-04T07:58:18;8.82;;;2.45;;
58260;SDS011;44058;52.898;6.502;2024-02-04T08:00:44;13.90;;;3.38;;
58260;SDS011;44058;52.898;6.502;2024-02-04T08:03:10;11.20;;;2.33;;
58260;SDS011;44058;52.898;6.502;2024-02-04T08:05:37;15.85;;;3.13;;
58260;SDS011;44058;52.898;6.502;2024-02-04T08:08:03;12.02;;;2.10;;
58260;SDS011;44058;52.898;6.502;2024-02-04T08:10:29;9.45;;;2.13;;
58260;SDS011;44058;52.898;6.502;2024-02-04T08:12:56;11.00;;;2.20;;
58260;SDS011;44058;52.898;6.502;2024-02-04T08:15:22;11.23;;;2.33;;
58260;SDS011;44058;52.898;6.502;2024-02-04T08:17:50;8.45;;;2.15;;
58260;SDS011;44058;52.898;6.502;2024-02-04T08:20:17;12.20;;;2.40;;
58260;SDS011;44058;52.898;6.502;2024-02-04T08:22:43;9.30;;;2.30;;
58260;SDS011;44058;52.898;6.502;2024-02-04T08:25:10;7.32;;;2.42;;
58260;SDS011;44058;52.898;6.502;2024-02-04T08:27:37;7.40;;;1.77;;
58260;SDS011;44058;52.898;6.502;2024-02-04T08:30:03;11.52;;;2.38;;
58260;SDS011;44058;52.898;6.502;2024-02-04T08:32:30;12.43;;;2.25;;
58260;SDS011;44058;52.898;6.502;2024-02-04T08:34:56;7.90;;;2.20;;
58260;SDS011;44058;52.898;6.502;2024-02-04T08:37:22;6.88;;;2.33;;
58260;SDS011;44058;52.898;6.502;2024-02-04T08:39:49;10.65;;;2.20;;
58260;SDS011;44058;52.898;6.502;2024-02-04T08:42:16;7.30;;;1.67;;
58260;SDS011;44058;52.898;6.502;2024-02-04T08:44:43;9.32;;;2.20;;
58260;SDS011;44058;52.898;6.502;2024-02-04T08:47:10;5.60;;;1.65;;
58260;SDS011;44058;52.898;6.502;2024-02-04T08:52:06;11.77;;;2.83;;
58260;SDS011;44058;52.898;6.502;2024-02-04T08:54:33;8.07;;;1.92;;
58260;SDS011;44058;52.898;6.502;2024-02-04T08:57:00;10.15;;;2.28;;
58260;SDS011;44058;52.898;6.502;2024-02-04T08:59:27;9.55;;;2.05;;
58260;SDS011;44058;52.898;6.502;2024-02-04T09:01:54;5.93;;;1.42;;
58260;SDS011;44058;52.898;6.502;2024-02-04T09:04:21;6.60;;;1.73;;
58260;SDS011;44058;52.898;6.502;2024-02-04T09:06:48;7.38;;;1.75;;
58260;SDS011;44058;52.898;6.502;2024-02-04T09:09:15;7.97;;;1.60;;
58260;SDS011;44058;52.898;6.502;2024-02-04T09:11:42;6.25;;;1.70;;
58260;SDS011;44058;52.898;6.502;2024-02-04T09:14:09;10.43;;;1.92;;
58260;SDS011;44058;52.898;6.502;2024-02-04T09:16:39;9.88;;;1.85;;
58260;SDS011;44058;52.898;6.502;2024-02-04T09:19:06;11.45;;;1.90;;
58260;SDS011;44058;52.898;6.502;2024-02-04T09:21:33;4.88;;;1.40;;
58260;SDS011;44058;52.898;6.502;2024-02-04T09:24:00;8.77;;;1.92;;
58260;SDS011;44058;52.898;6.502;2024-02-04T09:26:27;6.32;;;1.63;;
58260;SDS011;44058;52.898;6.502;2024-02-04T09:28:54;5.25;;;1.45;;
58260;SDS011;44058;52.898;6.502;2024-02-04T09:31:21;8.10;;;1.70;;
58260;SDS011;44058;52.898;6.502;2024-02-04T09:33:48;6.82;;;1.50;;
58260;SDS011;44058;52.898;6.502;2024-02-04T09:36:15;7.25;;;1.52;;
58260;SDS011;44058;52.898;6.502;2024-02-04T09:38:42;9.50;;;2.53;;
58260;SDS011;44058;52.898;6.502;2024-02-04T09:41:09;5.40;;;1.33;;
58260;SDS011;44058;52.898;6.502;2024-02-04T09:43:36;5.88;;;1.70;;
58260;SDS011;44058;52.898;6.502;2024-02-04T09:46:03;5.53;;;1.20;;
58260;SDS011;44058;52.898;6.502;2024-02-04T09:48:31;7.00;;;1.50;;
58260;SDS011;44058;52.898;6.502;2024-02-04T09:50:59;10.65;;;1.90;;
58260;SDS011;44058;52.898;6.502;2024-02-04T09:53:30;4.25;;;1.50;;
58260;SDS011;44058;52.898;6.502;2024-02-04T09:55:59;5.55;;;1.80;;
58260;SDS011;44058;52.898;6.502;2024-02-04T09:58:27;4.88;;;1.33;;
58260;SDS011;44058;52.898;6.502;2024-02-04T10:00:54;7.30;;;1.45;;
58260;SDS011;44058;52.898;6.502;2024-02-04T10:03:26;5.93;;;1.58;;
58260;SDS011;44058;52.898;6.502;2024-02-04T10:05:53;7.20;;;1.50;;
58260;SDS011;44058;52.898;6.502;2024-02-04T10:08:20;5.03;;;1.10;;
58260;SDS011;44058;52.898;6.502;2024-02-04T10:10:47;5.72;;;1.05;;
58260;SDS011;44058;52.898;6.502;2024-02-04T10:13:14;5.45;;;1.50;;
58260;SDS011;44058;52.898;6.502;2024-02-04T10:15:41;8.98;;;1.80;;
58260;SDS011;44058;52.898;6.502;2024-02-04T10:18:09;4.53;;;1.08;;
58260;SDS011;44058;52.898;6.502;2024-02-04T10:20:36;8.23;;;1.25;;
58260;SDS011;44058;52.898;6.502;2024-02-04T10:23:03;3.85;;;1.30;;
58260;SDS011;44058;52.898;6.502;2024-02-04T10:25:30;5.65;;;1.55;;
58260;SDS011;44058;52.898;6.502;2024-02-04T10:27:57;3.22;;;1.40;;
58260;SDS011;44058;52.898;6.502;2024-02-04T10:30:25;5.85;;;1.40;;
58260;SDS011;44058;52.898;6.502;2024-02-04T10:32:52;6.22;;;1.33;;
58260;SDS011;44058;52.898;6.502;2024-02-04T10:35:22;4.55;;;1.20;;
58260;SDS011;44058;52.898;6.502;2024-02-04T10:37:50;4.22;;;0.90;;
58260;SDS011;44058;52.898;6.502;2024-02-04T10:40:17;6.70;;;1.48;;
58260;SDS011;44058;52.898;6.502;2024-02-04T10:42:44;4.68;;;1.15;;
58260;SDS011;44058;52.898;6.502;2024-02-04T10:45:11;6.65;;;1.13;;
58260;SDS011;44058;52.898;6.502;2024-02-04T10:47:40;6.80;;;1.35;;
58260;SDS011;44058;52.898;6.502;2024-02-04T10:50:08;8.52;;;1.27;;
58260;SDS011;44058;52.898;6.502;2024-02-04T10:52:36;7.10;;;1.40;;
58260;SDS011;44058;52.898;6.502;2024-02-04T10:55:08;5.60;;;1.33;;
58260;SDS011;44058;52.898;6.502;2024-02-04T10:57:36;4.22;;;1.42;;
58260;SDS011;44058;52.898;6.502;2024-02-04T11:00:04;8.13;;;1.88;;
58260;SDS011;44058;52.898;6.502;2024-02-04T11:02:34;3.85;;;1.20;;
58260;SDS011;44058;52.898;6.502;2024-02-04T11:05:04;2.65;;;0.90;;
58260;SDS011;44058;52.898;6.502;2024-02-04T11:07:32;4.93;;;1.42;;
58260;SDS011;44058;52.898;6.502;2024-02-04T11:10:02;5.68;;;1.50;;
58260;SDS011;44058;52.898;6.502;2024-02-04T11:12:29;4.93;;;1.80;;
58260;SDS011;44058;52.898;6.502;2024-02-04T11:14:58;2.75;;;1.60;;
58260;SDS011;44058;52.898;6.502;2024-02-04T11:17:32;5.00;;;1.27;;
58260;SDS011;44058;52.898;6.502;2024-02-04T11:20:12;4.40;;;1.50;;
58260;SDS011;44058;52.898;6.502;2024-02-04T11:25:47;3.53;;;1.60;;
58260;SDS011;44058;52.898;6.502;2024-02-04T11:28:15;3.07;;;1.60;;
58260;SDS011;44058;52.898;6.502;2024-02-04T11:30:43;3.80;;;1.80;;
58260;SDS011;44058;52.898;6.502;2024-02-04T11:33:11;5.07;;;1.70;;
58260;SDS011;44058;52.898;6.502;2024-02-04T11:35:38;3.45;;;1.73;;
58260;SDS011;44058;52.898;6.502;2024-02-04T11:38:05;6.32;;;1.95;;
58260;SDS011;44058;52.898;6.502;2024-02-04T11:40:35;2.85;;;1.42;;
58260;SDS011;44058;52.898;6.502;2024-02-04T11:43:06;3.85;;;1.45;;
58260;SDS011;44058;52.898;6.502;2024-02-04T11:45:36;3.55;;;1.48;;
58260;SDS011;44058;52.898;6.502;2024-02-04T11:48:06;3.28;;;1.48;;
58260;SDS011;44058;52.898;6.502;2024-02-04T11:50:34;2.00;;;0.93;;
58260;SDS011;44058;52.898;6.502;2024-02-04T11:53:10;3.85;;;1.23;;
58260;SDS011;44058;52.898;6.502;2024-02-04T11:55:40;3.63;;;1.13;;
58260;SDS011;44058;52.898;6.502;2024-02-04T11:58:08;4.55;;;1.60;;
58260;SDS011;44058;52.898;6.502;2024-02-04T12:00:37;3.83;;;1.20;;
58260;SDS011;44058;52.898;6.502;2024-02-04T12:03:09;5.65;;;1.30;;
58260;SDS011;44058;52.898;6.502;2024-02-04T12:05:36;6.53;;;1.63;;
58260;SDS011;44058;52.898;6.502;2024-02-04T12:10:31;3.53;;;1.10;;
58260;SDS011;44058;52.898;6.502;2024-02-04T12:12:59;4.97;;;1.33;;
58260;SDS011;44058;52.898;6.502;2024-02-04T12:15:26;2.97;;;1.20;;
58260;SDS011;44058;52.898;6.502;2024-02-04T12:17:53;4.22;;;1.38;;
58260;SDS011;44058;52.898;6.502;2024-02-04T12:20:20;3.60;;;0.90;;
58260;SDS011;44058;52.898;6.502;2024-02-04T12:22:47;3.78;;;1.15;;
58260;SDS011;44058;52.898;6.502;2024-02-04T12:25:15;4.97;;;1.15;;
58260;SDS011;44058;52.898;6.502;2024-02-04T12:27:44;3.08;;;1.00;;
58260;SDS011;44058;52.898;6.502;2024-02-04T12:30:14;7.13;;;1.40;;
58260;SDS011;44058;52.898;6.502;2024-02-04T12:32:41;1.95;;;0.90;;
58260;SDS011;44058;52.898;6.502;2024-02-04T12:35:08;3.58;;;0.98;;
58260;SDS011;44058;52.898;6.502;2024-02-04T12:37:49;5.45;;;0.80;;
58260;SDS011;44058;52.898;6.502;2024-02-04T12:40:22;3.58;;;0.80;;
58260;SDS011;44058;52.898;6.502;2024-02-04T12:42:53;5.72;;;1.10;;
58260;SDS011;44058;52.898;6.502;2024-02-04T12:45:24;4.28;;;1.08;;
58260;SDS011;44058;52.898;6.502;2024-02-04T12:47:52;4.47;;;1.05;;
58260;SDS011;44058;52.898;6.502;2024-02-04T12:50:19;6.45;;;1.38;;
58260;SDS011;44058;52.898;6.502;2024-02-04T12:52:47;3.50;;;1.00;;
58260;SDS011;44058;52.898;6.502;2024-02-04T12:55:24;5.10;;;1.15;;
58260;SDS011;44058;52.898;6.502;2024-02-04T12:58:07;3.80;;;0.85;;
58260;SDS011;44058;52.898;6.502;2024-02-04T13:00:35;4.82;;;1.02;;
58260;SDS011;44058;52.898;6.502;2024-02-04T13:03:03;5.80;;;1.00;;
58260;SDS011;44058;52.898;6.502;2024-02-04T13:05:30;7.80;;;1.90;;
58260;SDS011;44058;52.898;6.502;2024-02-04T13:07:58;7.03;;;1.30;;
58260;SDS011;44058;52.898;6.502;2024-02-04T13:10:28;4.63;;;1.20;;
58260;SDS011;44058;52.898;6.502;2024-02-04T13:15:32;5.45;;;1.00;;
58260;SDS011;44058;52.898;6.502;2024-02-04T13:17:59;5.87;;;1.10;;
58260;SDS011;44058;52.898;6.502;2024-02-04T13:20:26;4.90;;;1.10;;
58260;SDS011;44058;52.898;6.502;2024-02-04T13:22:53;3.83;;;1.08;;
58260;SDS011;44058;52.898;6.502;2024-02-04T13:25:20;5.85;;;1.27;;
58260;SDS011;44058;52.898;6.502;2024-02-04T13:27:48;5.05;;;1.20;;
58260;SDS011;44058;52.898;6.502;2024-02-04T13:30:16;6.32;;;1.05;;
58260;SDS011;44058;52.898;6.502;2024-02-04T13:32:43;3.45;;;0.95;;
58260;SDS011;44058;52.898;6.502;2024-02-04T13:35:10;6.07;;;1.02;;
58260;SDS011;44058;52.898;6.502;2024-02-04T13:37:41;4.88;;;0.80;;
58260;SDS011;44058;52.898;6.502;2024-02-04T13:40:16;3.80;;;1.02;;
58260;SDS011;44058;52.898;6.502;2024-02-04T13:42:43;4.30;;;0.70;;
58260;SDS011;44058;52.898;6.502;2024-02-04T13:45:10;5.82;;;0.98;;
58260;SDS011;44058;52.898;6.502;2024-02-04T13:47:41;4.10;;;0.88;;
58260;SDS011;44058;52.898;6.502;2024-02-04T13:50:08;3.35;;;0.90;;
58260;SDS011;44058;52.898;6.502;2024-02-04T13:52:35;3.97;;;1.25;;
58260;SDS011;44058;52.898;6.502;2024-02-04T13:55:02;2.38;;;0.80;;
58260;SDS011;44058;52.898;6.502;2024-02-04T13:57:33;2.17;;;0.88;;
58260;SDS011;44058;52.898;6.502;2024-02-04T14:00:01;3.65;;;1.00;;
58260;SDS011;44058;52.898;6.502;2024-02-04T14:02:30;5.25;;;1.20;;
58260;SDS011;44058;52.898;6.502;2024-02-04T14:04:57;3.08;;;0.80;;
58260;SDS011;44058;52.898;6.502;2024-02-04T14:07:25;2.30;;;0.90;;
58260;SDS011;44058;52.898;6.502;2024-02-04T14:09:52;2.72;;;0.80;;
58260;SDS011;44058;52.898;6.502;2024-02-04T14:12:19;4.57;;;1.02;;
58260;SDS011;44058;52.898;6.502;2024-02-04T14:14:46;5.03;;;1.30;;
58260;SDS011;44058;52.898;6.502;2024-02-04T14:17:13;5.55;;;0.95;;
58260;SDS011;44058;52.898;6.502;2024-02-04T14:19:40;4.55;;;1.42;;
58260;SDS011;44058;52.898;6.502;2024-02-04T14:22:07;2.20;;;1.00;;
58260;SDS011;44058;52.898;6.502;2024-02-04T14:24:34;2.65;;;0.80;;
58260;SDS011;44058;52.898;6.502;2024-02-04T14:27:01;4.88;;;0.88;;
58260;SDS011;44058;52.898;6.502;2024-02-04T14:29:28;2.55;;;1.05;;
58260;SDS011;44058;52.898;6.502;2024-02-04T14:31:55;2.70;;;0.95;;
58260;SDS011;44058;52.898;6.502;2024-02-04T14:34:23;3.08;;;0.90;;
58260;SDS011;44058;52.898;6.502;2024-02-04T14:36:51;2.70;;;0.98;;
58260;SDS011;44058;52.898;6.502;2024-02-04T14:39:18;3.53;;;1.25;;
58260;SDS011;44058;52.898;6.502;2024-02-04T14:41:45;3.75;;;1.25;;
58260;SDS011;44058;52.898;6.502;2024-02-04T14:44:12;2.13;;;1.00;;
58260;SDS011;44058;52.898;6.502;2024-02-04T14:46:39;1.80;;;1.02;;
58260;SDS011;44058;52.898;6.502;2024-02-04T14:49:06;1.92;;;1.00;;
58260;SDS011;44058;52.898;6.502;2024-02-04T14:51:33;3.47;;;1.40;;
58260;SDS011;44058;52.898;6.502;2024-02-04T14:54:01;2.42;;;1.05;;
58260;SDS011;44058;52.898;6.502;2024-02-04T14:56:28;3.28;;;1.20;;
58260;SDS011;44058;52.898;6.502;2024-02-04T14:58:55;2.28;;;1.20;;
58260;SDS011;44058;52.898;6.502;2024-02-04T15:01:22;2.90;;;1.00;;